createdAt,value
2023-04-19T00:02:21.726Z,77.62
2023-04-19T00:04:48.791Z,77.73
2023-04-19T00:07:17.116Z,77.61
2023-04-19T00:09:44.089Z,77.83
2023-04-19T00:12:10.923Z,77.70
2023-04-19T00:14:37.842Z,78.25
2023-04-19T00:17:04.871Z,77.85
2023-04-19T00:19:31.705Z,78.27
2023-04-19T00:21:58.535Z,78.44
2023-04-19T00:24:25.365Z,78.41
2023-04-19T00:26:52.145Z,78.66
2023-04-19T00:29:18.931Z,78.58
2023-04-19T00:31:45.722Z,78.76
2023-04-19T00:34:13.575Z,79.16
2023-04-19T00:36:41.082Z,79.22
2023-04-19T00:39:08.036Z,79.21
2023-04-19T00:41:34.919Z,79.20
2023-04-19T00:44:01.673Z,79.60
2023-04-19T00:46:28.812Z,79.79
2023-04-19T00:48:56.020Z,79.50
2023-04-19T00:51:23.524Z,79.94
2023-04-19T00:53:50.549Z,80.13
2023-04-19T00:56:19.211Z,80.41
2023-04-19T00:58:46.299Z,80.16
2023-04-19T01:01:13.122Z,80.37
2023-04-19T01:03:40.507Z,80.36
2023-04-19T01:06:07.664Z,80.72
2023-04-19T01:08:34.409Z,80.86
2023-04-19T01:11:01.280Z,81.03
2023-04-19T01:13:28.183Z,81.37
2023-04-19T01:15:56.068Z,81.54
2023-04-19T01:18:24.569Z,81.61
2023-04-19T01:20:52.045Z,81.58
2023-04-19T01:23:18.944Z,81.66
2023-04-19T01:25:46.398Z,81.62
2023-04-19T01:28:13.252Z,81.35
2023-04-19T01:30:40.138Z,81.79
2023-04-19T01:33:06.960Z,81.52
2023-04-19T01:35:34.096Z,82.12
2023-04-19T01:38:01.247Z,81.81
2023-04-19T01:40:28.162Z,82.35
2023-04-19T01:42:54.966Z,82.06
2023-04-19T01:45:21.824Z,82.17
2023-04-19T01:47:48.617Z,82.12
2023-04-19T01:50:15.461Z,82.27
2023-04-19T01:52:42.206Z,82.30
2023-04-19T01:55:09.473Z,82.42
2023-04-19T01:57:36.207Z,82.16
2023-04-19T02:00:03.384Z,82.33
2023-04-19T02:02:30.421Z,82.26
2023-04-19T02:04:58.081Z,82.22
2023-04-19T02:07:24.899Z,82.09
2023-04-19T02:09:51.727Z,82.43
2023-04-19T02:12:18.540Z,82.47
2023-04-19T02:14:45.426Z,82.22
2023-04-19T02:17:12.524Z,82.47
2023-04-19T02:19:39.348Z,82.24
2023-04-19T02:22:06.164Z,82.33
2023-04-19T02:24:32.973Z,82.35
2023-04-19T02:26:59.754Z,82.26
2023-04-19T02:29:26.582Z,82.29
2023-04-19T02:31:53.475Z,82.17
2023-04-19T02:34:20.385Z,82.35
2023-04-19T02:36:47.140Z,82.31
2023-04-19T02:39:13.960Z,82.21
2023-04-19T02:41:41.745Z,82.36
2023-04-19T02:44:08.863Z,82.09
2023-04-19T02:46:35.794Z,82.01
2023-04-19T02:49:02.705Z,82.05
2023-04-19T02:51:29.711Z,82.14
2023-04-19T02:53:56.462Z,82.21
2023-04-19T02:56:23.266Z,82.10
2023-04-19T02:58:50.048Z,81.89
2023-04-19T03:01:16.899Z,81.79
2023-04-19T03:03:43.806Z,81.96
2023-04-19T03:06:10.717Z,81.77
2023-04-19T03:08:37.581Z,81.64
2023-04-19T03:11:04.486Z,81.95
2023-04-19T03:13:31.343Z,81.70
2023-04-19T03:15:58.191Z,81.78
2023-04-19T03:18:25.014Z,81.94
2023-04-19T03:20:51.794Z,81.76
2023-04-19T03:23:18.560Z,81.73
2023-04-19T03:25:46.142Z,81.61
2023-04-19T03:28:12.934Z,81.70
2023-04-19T03:30:39.710Z,81.85
2023-04-19T03:33:07.024Z,81.68
2023-04-19T03:35:33.878Z,81.66
2023-04-19T03:38:00.775Z,81.59
2023-04-19T03:40:27.727Z,81.36
2023-04-19T03:42:54.486Z,81.27
2023-04-19T03:45:21.407Z,81.42
2023-04-19T03:47:48.195Z,81.38
2023-04-19T03:50:15.078Z,81.21
2023-04-19T03:52:41.866Z,81.19
2023-04-19T03:55:09.528Z,81.24
2023-04-19T03:57:36.334Z,81.13
2023-04-19T04:00:07.251Z,81.38
2023-04-19T04:02:34.324Z,81.23
2023-04-19T04:05:01.435Z,81.51
2023-04-19T04:07:28.542Z,81.67
2023-04-19T04:09:55.617Z,81.63
2023-04-19T04:12:22.398Z,81.86
2023-04-19T04:14:49.218Z,81.69
2023-04-19T04:17:16.084Z,81.59
2023-04-19T04:19:42.884Z,81.35
2023-04-19T04:22:09.702Z,81.57
2023-04-19T04:24:41.613Z,81.65
2023-04-19T04:27:10.278Z,81.51
2023-04-19T04:29:37.681Z,81.36
2023-04-19T04:32:11.302Z,81.73
2023-04-19T04:34:40.754Z,81.18
2023-04-19T04:37:08.974Z,81.10
2023-04-19T04:39:39.366Z,81.20
2023-04-19T04:42:09.124Z,81.53
2023-04-19T04:44:39.205Z,81.61
2023-04-19T04:47:06.045Z,81.54
2023-04-19T04:49:32.875Z,81.13
2023-04-19T04:52:00.268Z,81.53
2023-04-19T04:54:27.051Z,81.25
2023-04-19T04:56:53.842Z,81.28
2023-04-19T04:59:20.680Z,81.43
2023-04-19T05:01:47.686Z,81.19
2023-04-19T05:04:14.759Z,81.56
2023-04-19T05:06:41.798Z,82.09
2023-04-19T05:09:08.561Z,80.80
2023-04-19T05:11:35.370Z,78.53
2023-04-19T05:14:03.195Z,79.22
2023-04-19T05:16:30.186Z,78.00
2023-04-19T05:18:56.982Z,76.85
2023-04-19T05:21:23.830Z,74.45
2023-04-19T05:23:53.661Z,74.40
2023-04-19T05:26:20.758Z,75.24
2023-04-19T05:28:47.661Z,76.00
2023-04-19T05:31:14.681Z,76.55
2023-04-19T05:33:41.742Z,76.54
2023-04-19T05:36:08.998Z,76.34
2023-04-19T05:38:35.987Z,75.96
2023-04-19T05:41:04.243Z,76.19
2023-04-19T05:43:31.366Z,76.30
2023-04-19T05:45:58.447Z,73.69
2023-04-19T05:48:25.751Z,69.43
2023-04-19T05:50:57.547Z,65.79
2023-04-19T05:53:24.320Z,63.25
2023-04-19T05:55:52.345Z,60.77
2023-04-19T05:58:19.442Z,60.48
2023-04-19T06:00:46.772Z,62.25
2023-04-19T06:03:14.248Z,61.38
2023-04-19T06:05:41.681Z,61.74
2023-04-19T06:08:09.689Z,62.60
2023-04-19T06:10:51.758Z,63.00
2023-04-19T06:13:21.159Z,63.40
2023-04-19T06:15:48.538Z,63.19
2023-04-19T06:18:21.315Z,63.61
2023-04-19T06:20:48.379Z,62.60
2023-04-19T06:23:15.561Z,61.37
2023-04-19T06:25:42.833Z,58.47
2023-04-19T06:28:09.748Z,55.77
2023-04-19T06:30:36.775Z,54.35
2023-04-19T06:33:03.722Z,53.08
2023-04-19T06:35:31.951Z,51.90
2023-04-19T06:38:01.508Z,51.82
2023-04-19T06:40:29.537Z,51.23
2023-04-19T06:42:56.416Z,51.39
2023-04-19T06:45:23.524Z,49.86
2023-04-19T06:47:50.481Z,48.66
2023-04-19T06:50:17.520Z,48.30
2023-04-19T06:52:44.367Z,49.47
2023-04-19T06:55:11.878Z,49.08
2023-04-19T06:57:38.838Z,49.48
2023-04-19T07:00:06.960Z,48.22
2023-04-19T07:02:34.141Z,47.81
2023-04-19T07:05:01.124Z,47.56
2023-04-19T07:07:28.187Z,46.57
2023-04-19T07:09:55.158Z,47.61
2023-04-19T07:12:21.986Z,47.80
2023-04-19T07:14:48.843Z,48.74
2023-04-19T07:17:15.596Z,48.88
2023-04-19T07:19:42.644Z,50.51
2023-04-19T07:22:09.511Z,50.19
2023-04-19T07:24:36.333Z,48.88
2023-04-19T07:27:03.161Z,49.41
2023-04-19T07:29:29.979Z,49.08
2023-04-19T07:31:56.972Z,47.74
2023-04-19T07:34:24.128Z,48.49
2023-04-19T07:36:50.914Z,48.71
2023-04-19T07:39:17.838Z,49.11
2023-04-19T07:41:45.636Z,49.97
2023-04-19T07:44:13.791Z,48.46
2023-04-19T07:46:46.890Z,49.01
2023-04-19T07:49:13.997Z,50.44
2023-04-19T07:51:40.704Z,49.48
2023-04-19T07:54:07.607Z,49.22
2023-04-19T07:56:34.660Z,49.23
2023-04-19T07:59:08.372Z,49.22
2023-04-19T08:01:37.157Z,46.99
2023-04-19T08:04:04.573Z,48.36
2023-04-19T08:06:32.691Z,48.07
2023-04-19T08:08:59.606Z,49.03
2023-04-19T08:11:26.471Z,47.58
2023-04-19T08:14:04.431Z,47.43
2023-04-19T08:19:06.358Z,46.44
2023-04-19T08:21:40.434Z,48.05
2023-04-19T08:24:08.596Z,47.30
2023-04-19T08:26:35.900Z,45.72
2023-04-19T08:29:02.785Z,45.13
2023-04-19T08:31:29.677Z,45.96
2023-04-19T08:33:57.278Z,46.74
2023-04-19T08:36:37.014Z,46.76
2023-04-19T08:39:14.697Z,46.00
2023-04-19T08:41:48.168Z,46.36
2023-04-19T08:44:28.677Z,47.04
2023-04-19T08:47:02.604Z,45.88
2023-04-19T08:49:29.880Z,45.23
2023-04-19T08:52:01.581Z,45.56
2023-04-19T08:54:31.802Z,44.80
2023-04-19T08:56:59.304Z,44.10
2023-04-19T08:59:26.499Z,43.92
2023-04-19T09:01:54.542Z,44.15
2023-04-19T09:04:34.723Z,45.70
2023-04-19T09:07:03.614Z,44.36
2023-04-19T09:09:37.051Z,42.77
2023-04-19T09:12:20.561Z,42.47
2023-04-19T09:17:18.064Z,43.08
2023-04-19T09:19:50.927Z,41.98
2023-04-19T09:22:18.826Z,41.74
2023-04-19T09:25:27.699Z,43.59
2023-04-19T09:27:36.632Z,41.66
2023-04-19T09:30:05.003Z,43.15
2023-04-19T09:32:47.345Z,41.73
2023-04-19T09:35:14.703Z,41.63
2023-04-19T09:40:28.236Z,41.63
2023-04-19T09:43:08.855Z,43.10
2023-04-19T09:45:44.889Z,43.56
2023-04-19T09:48:13.163Z,42.92
2023-04-19T09:51:02.651Z,41.07
2023-04-19T09:53:34.764Z,40.03
2023-04-19T09:56:03.471Z,41.21
2023-04-19T09:58:42.632Z,41.80
2023-04-19T10:01:19.179Z,41.34
2023-04-19T10:03:49.909Z,41.79
2023-04-19T10:08:51.228Z,41.60
2023-04-19T10:11:22.055Z,39.79
2023-04-19T10:13:53.259Z,40.89
2023-04-19T10:16:20.804Z,42.18
2023-04-19T10:18:50.543Z,40.02
2023-04-19T10:21:19.513Z,39.05
2023-04-19T10:23:47.244Z,38.99
2023-04-19T10:26:14.116Z,39.60
2023-04-19T10:28:42.671Z,39.30
2023-04-19T10:31:13.815Z,39.17
2023-04-19T10:33:41.821Z,39.08
2023-04-19T10:36:10.711Z,40.31
2023-04-19T10:38:44.709Z,38.20
2023-04-19T10:41:14.375Z,39.51
2023-04-19T10:43:55.496Z,38.13
2023-04-19T10:46:22.570Z,37.58
2023-04-19T10:48:59.633Z,38.57
2023-04-19T10:51:28.221Z,38.53
2023-04-19T10:54:09.130Z,37.24
2023-04-19T10:56:35.982Z,37.81
2023-04-19T10:59:08.498Z,39.12
2023-04-19T11:01:46.150Z,38.52
2023-04-19T11:04:21.896Z,37.39
2023-04-19T11:06:54.474Z,38.44
2023-04-19T11:09:34.633Z,36.45
2023-04-19T11:12:13.308Z,36.43
2023-04-19T11:14:43.420Z,37.48
2023-04-19T11:17:27.920Z,36.53
2023-04-19T11:19:57.094Z,35.89
2023-04-19T11:22:31.530Z,35.29
2023-04-19T11:25:25.199Z,35.28
2023-04-19T11:27:53.497Z,36.86
2023-04-19T11:30:23.074Z,36.27
2023-04-19T11:32:52.969Z,36.27
2023-04-19T11:35:25.040Z,34.48
2023-04-19T11:37:53.414Z,35.18
2023-04-19T11:40:22.058Z,34.14
2023-04-19T11:42:56.226Z,33.72
2023-04-19T11:45:32.030Z,33.92
2023-04-19T11:48:01.789Z,33.55
2023-04-19T11:50:33.575Z,34.30
2023-04-19T11:53:09.702Z,33.07
2023-04-19T11:55:36.941Z,33.95
2023-04-19T11:58:06.539Z,32.89
2023-04-19T12:00:33.597Z,32.59
2023-04-19T12:03:00.772Z,33.28
2023-04-19T12:05:28.241Z,32.23
2023-04-19T12:08:08.727Z,32.37
2023-04-19T12:10:36.531Z,33.49
2023-04-19T12:13:18.780Z,31.65
2023-04-19T12:15:46.788Z,32.08
2023-04-19T12:18:14.581Z,32.03
2023-04-19T12:20:49.842Z,32.40
2023-04-19T12:23:19.946Z,32.40
2023-04-19T12:25:48.731Z,31.44
2023-04-19T12:28:16.205Z,33.00
2023-04-19T12:30:44.138Z,33.45
2023-04-19T12:33:11.788Z,31.65
2023-04-19T12:35:39.353Z,30.53
2023-04-19T12:38:06.406Z,30.78
2023-04-19T12:40:33.685Z,31.30
2023-04-19T12:43:00.536Z,32.77
2023-04-19T12:45:27.928Z,32.66
2023-04-19T12:47:54.850Z,33.10
2023-04-19T12:50:21.966Z,31.57
2023-04-19T12:52:49.110Z,31.63
2023-04-19T12:55:16.313Z,32.26
2023-04-19T12:57:43.480Z,33.07
2023-04-19T13:00:11.335Z,32.52
2023-04-19T13:02:38.933Z,32.77
2023-04-19T13:05:06.674Z,31.58
2023-04-19T13:07:33.638Z,32.46
2023-04-19T13:10:00.801Z,31.79
2023-04-19T13:12:28.485Z,32.21
2023-04-19T13:14:55.505Z,31.61
2023-04-19T13:17:22.514Z,31.74
2023-04-19T13:19:49.635Z,32.28
2023-04-19T13:22:16.791Z,32.08
2023-04-19T13:24:43.617Z,33.65
2023-04-19T13:27:10.544Z,32.37
2023-04-19T13:29:37.583Z,31.08
2023-04-19T13:32:07.820Z,31.90
2023-04-19T13:34:36.224Z,33.03
2023-04-19T13:37:03.182Z,32.87
2023-04-19T13:39:30.179Z,31.66
2023-04-19T13:41:57.228Z,32.46
2023-04-19T13:44:25.453Z,33.26
2023-04-19T13:46:52.493Z,33.17
2023-04-19T13:49:19.617Z,32.90
2023-04-19T13:51:50.620Z,32.05
2023-04-19T13:54:19.794Z,31.65
2023-04-19T13:56:49.817Z,31.89
2023-04-19T13:59:18.713Z,31.92
2023-04-19T14:01:45.637Z,32.00
2023-04-19T14:04:12.822Z,31.08
2023-04-19T14:06:39.937Z,30.01
2023-04-19T14:09:06.962Z,31.41
2023-04-19T14:11:34.550Z,31.62
2023-04-19T14:14:01.447Z,30.38
2023-04-19T14:16:28.346Z,30.24
2023-04-19T14:18:55.465Z,30.31
2023-04-19T14:21:22.330Z,31.08
2023-04-19T14:23:49.294Z,31.40
2023-04-19T14:26:16.415Z,31.41
2023-04-19T14:28:43.322Z,31.52
2023-04-19T14:31:10.463Z,30.63
2023-04-19T14:33:37.405Z,31.03
2023-04-19T14:36:04.778Z,30.98
2023-04-19T14:38:31.982Z,31.55
2023-04-19T14:40:58.830Z,31.07
2023-04-19T14:43:26.270Z,31.37
2023-04-19T14:45:53.435Z,33.04
2023-04-19T14:48:22.228Z,31.97
2023-04-19T14:50:49.455Z,33.06
2023-04-19T14:53:16.382Z,33.75
2023-04-19T14:55:43.280Z,32.95
2023-04-19T14:58:10.118Z,33.28
2023-04-19T15:00:37.111Z,34.19
2023-04-19T15:03:04.207Z,32.56
2023-04-19T15:05:36.489Z,33.26
2023-04-19T15:08:03.779Z,33.42
2023-04-19T15:10:31.038Z,33.89
2023-04-19T15:12:58.255Z,34.05
2023-04-19T15:15:25.336Z,34.72
2023-04-19T15:17:52.350Z,33.85
2023-04-19T15:20:19.631Z,34.68
2023-04-19T15:22:46.649Z,34.94
2023-04-19T15:25:13.747Z,34.11
2023-04-19T15:27:40.837Z,34.32
2023-04-19T15:30:08.249Z,36.09
2023-04-19T15:32:37.004Z,36.18
2023-04-19T15:35:04.161Z,36.36
2023-04-19T15:37:31.142Z,35.33
2023-04-19T15:39:57.965Z,36.14
2023-04-19T15:42:24.840Z,36.53
2023-04-19T15:44:51.997Z,37.17
2023-04-19T15:47:18.969Z,36.80
2023-04-19T15:49:47.566Z,37.62
2023-04-19T15:52:14.509Z,37.76
2023-04-19T15:54:41.558Z,37.98
2023-04-19T15:57:08.437Z,38.04
2023-04-19T15:59:35.377Z,38.35
2023-04-19T16:02:02.515Z,40.07
2023-04-19T16:04:30.791Z,39.37
2023-04-19T16:06:57.809Z,39.91
2023-04-19T16:09:24.841Z,39.42
2023-04-19T16:11:51.800Z,40.20
2023-04-19T16:14:18.892Z,40.07
2023-04-19T16:16:45.949Z,40.70
2023-04-19T16:19:12.761Z,41.10
2023-04-19T16:21:39.789Z,40.42
2023-04-19T16:24:07.160Z,40.71
2023-04-19T16:26:34.230Z,41.75
2023-04-19T16:29:01.441Z,41.03
2023-04-19T16:31:28.637Z,40.56
2023-04-19T16:33:55.821Z,40.04
2023-04-19T16:36:22.710Z,40.59
2023-04-19T16:38:49.625Z,41.18
2023-04-19T16:41:16.529Z,40.64
2023-04-19T16:43:43.588Z,40.69
2023-04-19T16:46:11.229Z,41.12
2023-04-19T16:48:38.187Z,41.27
2023-04-19T16:51:05.186Z,40.07
2023-04-19T16:53:32.355Z,40.30
2023-04-19T16:56:00.466Z,39.97
2023-04-19T16:58:27.426Z,40.28
2023-04-19T17:00:54.249Z,40.29
2023-04-19T17:03:22.090Z,40.11
2023-04-19T17:05:49.104Z,40.30
2023-04-19T17:08:16.023Z,40.91
2023-04-19T17:10:42.866Z,41.49
2023-04-19T17:13:09.786Z,40.69
2023-04-19T17:15:38.447Z,40.84
2023-04-19T17:18:05.865Z,41.23
2023-04-19T17:20:33.008Z,41.26
2023-04-19T17:22:59.937Z,40.91
2023-04-19T17:25:26.894Z,40.94
2023-04-19T17:27:53.854Z,41.50
2023-04-19T17:30:21.055Z,41.28
2023-04-19T17:32:48.027Z,40.66
2023-04-19T17:35:15.918Z,41.95
2023-04-19T17:37:43.880Z,41.78
2023-04-19T17:40:11.218Z,41.61
2023-04-19T17:42:38.247Z,41.91
2023-04-19T17:45:10.888Z,42.39
2023-04-19T17:47:38.946Z,42.07
2023-04-19T17:50:13.663Z,42.09
2023-04-19T17:52:40.634Z,41.57
2023-04-19T17:55:08.162Z,42.54
2023-04-19T17:57:35.780Z,42.25
2023-04-19T18:00:06.866Z,42.89
2023-04-19T18:02:34.721Z,42.76
2023-04-19T18:05:02.116Z,43.07
2023-04-19T18:07:29.508Z,43.38
2023-04-19T18:09:56.465Z,42.21
2023-04-19T18:12:23.631Z,42.39
2023-04-19T18:14:50.559Z,42.88
2023-04-19T18:17:17.498Z,43.36
2023-04-19T18:19:44.428Z,43.06
2023-04-19T18:22:11.488Z,43.31
2023-04-19T18:24:40.900Z,43.27
2023-04-19T18:27:07.812Z,43.40
2023-04-19T18:29:34.641Z,43.66
2023-04-19T18:32:01.565Z,43.56
2023-04-19T18:34:28.462Z,43.55
2023-04-19T18:36:59.404Z,43.52
2023-04-19T18:39:26.418Z,43.37
2023-04-19T18:41:53.317Z,44.05
2023-04-19T18:44:44.306Z,43.52
2023-04-19T18:47:07.124Z,43.61
2023-04-19T18:49:34.285Z,43.63
2023-04-19T18:52:01.160Z,44.02
2023-04-19T18:54:28.042Z,43.60
2023-04-19T18:59:25.147Z,44.20
2023-04-19T19:01:52.717Z,44.48
2023-04-19T19:04:43.046Z,44.99
2023-04-19T19:07:22.979Z,45.42
2023-04-19T19:09:56.714Z,46.29
2023-04-19T19:12:24.083Z,46.71
2023-04-19T19:14:51.565Z,47.53
2023-04-19T19:17:18.595Z,47.51
2023-04-19T19:19:45.631Z,47.43
2023-04-19T19:22:25.071Z,47.95
2023-04-19T19:24:55.143Z,48.51
2023-04-19T19:27:22.095Z,49.01
2023-04-19T19:29:49.020Z,49.76
2023-04-19T19:32:16.158Z,49.91
2023-04-19T19:34:54.892Z,49.96
2023-04-19T19:37:23.434Z,50.19
2023-04-19T19:39:50.617Z,50.12
2023-04-19T19:42:19.304Z,50.05
2023-04-19T19:44:46.274Z,49.48
2023-04-19T19:47:13.572Z,49.92
2023-04-19T19:49:57.642Z,49.82
2023-04-19T19:52:28.387Z,49.26
2023-04-19T19:54:55.219Z,48.63
2023-04-19T19:58:10.323Z,47.16
2023-04-19T20:02:54.252Z,45.90
2023-04-19T20:05:24.079Z,45.20
2023-04-19T20:10:21.060Z,43.65
2023-04-19T20:12:48.062Z,43.91
2023-04-19T20:15:15.017Z,42.52
2023-04-19T20:17:41.921Z,42.38
2023-04-19T20:20:11.295Z,42.97
2023-04-19T20:22:38.727Z,42.80
2023-04-19T20:25:05.960Z,43.09
2023-04-19T20:27:33.502Z,42.65
2023-04-19T20:30:01.094Z,42.37
2023-04-19T20:32:28.139Z,42.27
2023-04-19T20:34:55.063Z,41.97
2023-04-19T20:37:22.623Z,42.42
2023-04-19T20:39:49.617Z,42.15
2023-04-19T20:42:16.951Z,42.19
2023-04-19T20:44:43.796Z,42.90
2023-04-19T20:47:13.077Z,42.60
2023-04-19T20:49:40.054Z,42.26
2023-04-19T20:52:06.857Z,42.50
2023-04-19T20:54:35.210Z,42.21
2023-04-19T20:57:03.220Z,42.05
2023-04-19T20:59:30.072Z,42.20
2023-04-19T21:01:57.345Z,41.66
2023-04-19T21:04:24.341Z,42.28
2023-04-19T21:06:51.366Z,42.13
2023-04-19T21:09:18.390Z,42.12
2023-04-19T21:11:45.627Z,41.98
2023-04-19T21:14:12.514Z,42.09
2023-04-19T21:16:39.396Z,42.14
2023-04-19T21:19:06.226Z,42.18
2023-04-19T21:21:33.020Z,42.53
2023-04-19T21:23:59.882Z,42.93
2023-04-19T21:26:27.050Z,42.66
2023-04-19T21:28:53.842Z,42.18
2023-04-19T21:31:20.693Z,41.98
2023-04-19T21:33:47.521Z,42.45
2023-04-19T21:36:14.327Z,42.56
2023-04-19T21:38:41.118Z,42.74
2023-04-19T21:41:08.335Z,42.70
2023-04-19T21:43:35.123Z,42.21
2023-04-19T21:46:04.890Z,42.27
2023-04-19T21:48:32.128Z,42.67
2023-04-19T21:50:59.991Z,43.02
2023-04-19T21:53:26.860Z,42.62
2023-04-19T21:55:53.745Z,42.21
2023-04-19T21:58:20.531Z,42.24
2023-04-19T22:00:48.702Z,42.66
2023-04-19T22:03:15.849Z,42.54
2023-04-19T22:05:43.348Z,42.42
2023-04-19T22:08:10.637Z,42.94
2023-04-19T22:10:37.867Z,43.15
2023-04-19T22:13:05.143Z,43.04
2023-04-19T22:15:31.989Z,43.01
2023-04-19T22:17:58.827Z,43.22
2023-04-19T22:20:28.561Z,43.52
2023-04-19T22:22:55.961Z,43.34
2023-04-19T22:25:22.737Z,43.73
2023-04-19T22:27:49.568Z,42.77
2023-04-19T22:30:16.585Z,43.23
2023-04-19T22:32:43.407Z,43.81
2023-04-19T22:35:10.321Z,43.88
2023-04-19T22:37:37.143Z,43.92
2023-04-19T22:40:07.042Z,44.08
2023-04-19T22:42:33.960Z,44.30
2023-04-19T22:45:00.857Z,44.01
2023-04-19T22:47:27.746Z,44.59
2023-04-19T22:49:54.594Z,44.34
2023-04-19T22:52:21.382Z,44.00
2023-04-19T22:54:48.127Z,44.34
2023-04-19T22:57:14.927Z,44.20
2023-04-19T22:59:41.724Z,44.27
2023-04-19T23:02:08.730Z,44.24
2023-04-19T23:04:35.743Z,44.33
2023-04-19T23:07:04.018Z,44.06
2023-04-19T23:09:30.935Z,44.40
2023-04-19T23:12:00.976Z,44.51
2023-04-19T23:14:29.295Z,44.89
2023-04-19T23:16:57.268Z,44.51
2023-04-19T23:19:25.463Z,44.90
2023-04-19T23:21:52.244Z,45.05
2023-04-19T23:24:19.703Z,45.20
2023-04-19T23:26:46.538Z,45.26
2023-04-19T23:29:13.274Z,45.36
2023-04-19T23:31:40.184Z,45.48
2023-04-19T23:34:07.113Z,45.57
2023-04-19T23:36:33.928Z,45.79
2023-04-19T23:39:00.776Z,45.97
2023-04-19T23:41:27.667Z,46.18
2023-04-19T23:43:54.419Z,46.08
2023-04-19T23:46:21.573Z,46.28
2023-04-19T23:48:48.350Z,46.76
2023-04-19T23:51:15.146Z,46.70
2023-04-19T23:53:41.952Z,47.02
2023-04-19T23:56:08.803Z,47.21
2023-04-19T23:58:35.648Z,47.14
